sensor_id;sensor_type;location;lat;lon;timestamp;temperature;humidity
49052;DHT22;34866;48.670;18.260;2023-02-26T00:01:51;25.80;1740.80
49052;DHT22;34866;48.670;18.260;2023-02-26T00:04:26;25.70;2022.40
49052;DHT22;34866;48.670;18.260;2023-02-26T00:06:52;25.70;2201.60
49052;DHT22;34866;48.670;18.260;2023-02-26T00:09:18;25.70;2201.60
49052;DHT22;34866;48.670;18.260;2023-02-26T00:11:45;25.70;2124.80
49052;DHT22;34866;48.670;18.260;2023-02-26T00:14:13;25.70;2201.60
49052;DHT22;34866;48.670;18.260;2023-02-26T00:16:39;25.70;2201.60
49052;DHT22;34866;48.670;18.260;2023-02-26T00:19:07;25.80;1971.20
49052;DHT22;34866;48.670;18.260;2023-02-26T00:21:34;25.70;2201.60
49052;DHT22;34866;48.670;18.260;2023-02-26T00:24:00;25.70;2099.20
49052;DHT22;34866;48.670;18.260;2023-02-26T00:26:28;25.70;2201.60
49052;DHT22;34866;48.670;18.260;2023-02-26T00:28:54;25.70;1971.20
49052;DHT22;34866;48.670;18.260;2023-02-26T00:31:21;25.70;2022.40
49052;DHT22;34866;48.670;18.260;2023-02-26T00:33:51;25.70;2099.20
49052;DHT22;34866;48.670;18.260;2023-02-26T00:41:42;25.80;1715.20
49052;DHT22;34866;48.670;18.260;2023-02-26T00:44:08;25.80;1740.80
49052;DHT22;34866;48.670;18.260;2023-02-26T00:46:55;25.70;1843.20
49052;DHT22;34866;48.670;18.260;2023-02-26T00:52:04;25.70;2201.60
49052;DHT22;34866;48.670;18.260;2023-02-26T00:54:32;25.60;2201.60
49052;DHT22;34866;48.670;18.260;2023-02-26T00:56:58;0.90;2201.60
49052;DHT22;34866;48.670;18.260;2023-02-26T00:59:24;0.90;2201.60
49052;DHT22;34866;48.670;18.260;2023-02-26T01:01:51;0.90;2201.60
49052;DHT22;34866;48.670;18.260;2023-02-26T01:04:19;25.60;2201.60
49052;DHT22;34866;48.670;18.260;2023-02-26T01:06:52;25.60;2201.60
49052;DHT22;34866;48.670;18.260;2023-02-26T01:11:51;25.60;2201.60
49052;DHT22;34866;48.670;18.260;2023-02-26T01:14:18;0.90;2201.60
49052;DHT22;34866;48.670;18.260;2023-02-26T01:17:05;0.90;2201.60
49052;DHT22;34866;48.670;18.260;2023-02-26T01:19:40;0.90;2201.60
49052;DHT22;34866;48.670;18.260;2023-02-26T01:24:47;0.90;2201.60
49052;DHT22;34866;48.670;18.260;2023-02-26T01:27:13;0.80;2201.60
49052;DHT22;34866;48.670;18.260;2023-02-26T01:29:39;0.80;2201.60
49052;DHT22;34866;48.670;18.260;2023-02-26T01:32:11;0.80;2201.60
49052;DHT22;34866;48.670;18.260;2023-02-26T01:34:58;0.80;2201.60
49052;DHT22;34866;48.670;18.260;2023-02-26T01:42:42;0.60;2201.60
49052;DHT22;34866;48.670;18.260;2023-02-26T01:45:12;0.50;2201.60
49052;DHT22;34866;48.670;18.260;2023-02-26T01:47:48;0.60;2201.60
49052;DHT22;34866;48.670;18.260;2023-02-26T01:50:21;0.60;2201.60
49052;DHT22;34866;48.670;18.260;2023-02-26T01:55:21;0.70;2201.60
49052;DHT22;34866;48.670;18.260;2023-02-26T01:57:48;0.70;2201.60
49052;DHT22;34866;48.670;18.260;2023-02-26T02:00:16;0.60;2201.60
49052;DHT22;34866;48.670;18.260;2023-02-26T02:02:42;0.50;2201.60
49052;DHT22;34866;48.670;18.260;2023-02-26T02:05:15;0.50;2201.60
49052;DHT22;34866;48.670;18.260;2023-02-26T02:07:43;0.60;2201.60
49052;DHT22;34866;48.670;18.260;2023-02-26T02:10:10;0.60;2201.60
49052;DHT22;34866;48.670;18.260;2023-02-26T02:12:56;0.60;2201.60
49052;DHT22;34866;48.670;18.260;2023-02-26T02:27:01;0.60;2201.60
49052;DHT22;34866;48.670;18.260;2023-02-26T02:32:28;0.60;2201.60
49052;DHT22;34866;48.670;18.260;2023-02-26T02:35:17;0.60;2201.60
49052;DHT22;34866;48.670;18.260;2023-02-26T02:37:50;0.70;2201.60
49052;DHT22;34866;48.670;18.260;2023-02-26T02:40:31;0.60;2201.60
49052;DHT22;34866;48.670;18.260;2023-02-26T02:43:01;0.70;2201.60
49052;DHT22;34866;48.670;18.260;2023-02-26T02:48:30;0.60;2201.60
49052;DHT22;34866;48.670;18.260;2023-02-26T02:51:00;0.60;2201.60
49052;DHT22;34866;48.670;18.260;2023-02-26T02:53:36;0.60;2201.60
49052;DHT22;34866;48.670;18.260;2023-02-26T02:56:16;0.60;2201.60
49052;DHT22;34866;48.670;18.260;2023-02-26T02:58:50;0.70;2201.60
49052;DHT22;34866;48.670;18.260;2023-02-26T03:01:18;0.70;2201.60
49052;DHT22;34866;48.670;18.260;2023-02-26T03:04:01;0.70;2201.60
49052;DHT22;34866;48.670;18.260;2023-02-26T03:06:28;0.70;2201.60
49052;DHT22;34866;48.670;18.260;2023-02-26T03:08:54;0.70;2201.60
49052;DHT22;34866;48.670;18.260;2023-02-26T03:11:21;0.70;2201.60
49052;DHT22;34866;48.670;18.260;2023-02-26T03:13:48;0.70;2201.60
49052;DHT22;34866;48.670;18.260;2023-02-26T03:22:14;0.70;2201.60
49052;DHT22;34866;48.670;18.260;2023-02-26T03:24:56;0.70;2201.60
49052;DHT22;34866;48.670;18.260;2023-02-26T03:30:03;0.60;2201.60
49052;DHT22;34866;48.670;18.260;2023-02-26T03:33:02;0.60;2201.60
49052;DHT22;34866;48.670;18.260;2023-02-26T03:35:37;0.70;2201.60
49052;DHT22;34866;48.670;18.260;2023-02-26T03:38:10;0.60;2201.60
49052;DHT22;34866;48.670;18.260;2023-02-26T03:40:43;0.60;2201.60
49052;DHT22;34866;48.670;18.260;2023-02-26T03:43:25;0.70;2201.60
49052;DHT22;34866;48.670;18.260;2023-02-26T03:45:54;0.70;2201.60
49052;DHT22;34866;48.670;18.260;2023-02-26T03:48:23;0.70;2201.60
49052;DHT22;34866;48.670;18.260;2023-02-26T03:50:52;0.70;2201.60
49052;DHT22;34866;48.670;18.260;2023-02-26T03:53:47;0.60;2201.60
49052;DHT22;34866;48.670;18.260;2023-02-26T03:56:25;0.60;2201.60
49052;DHT22;34866;48.670;18.260;2023-02-26T03:58:51;0.60;2201.60
49052;DHT22;34866;48.670;18.260;2023-02-26T04:01:22;0.70;2201.60
49052;DHT22;34866;48.670;18.260;2023-02-26T04:04:12;0.70;2201.60
49052;DHT22;34866;48.670;18.260;2023-02-26T04:06:40;0.70;2201.60
49052;DHT22;34866;48.670;18.260;2023-02-26T04:09:06;0.70;2201.60
49052;DHT22;34866;48.670;18.260;2023-02-26T04:11:32;0.70;2201.60
49052;DHT22;34866;48.670;18.260;2023-02-26T04:13:58;0.90;2201.60
49052;DHT22;34866;48.670;18.260;2023-02-26T04:16:24;0.70;2201.60
49052;DHT22;34866;48.670;18.260;2023-02-26T04:18:50;0.70;2201.60
49052;DHT22;34866;48.670;18.260;2023-02-26T04:21:18;0.70;2201.60
49052;DHT22;34866;48.670;18.260;2023-02-26T04:23:44;0.70;2201.60
49052;DHT22;34866;48.670;18.260;2023-02-26T04:26:10;0.70;2124.80
49052;DHT22;34866;48.670;18.260;2023-02-26T04:28:38;0.70;1971.20
49052;DHT22;34866;48.670;18.260;2023-02-26T04:31:04;0.70;2176.00
49052;DHT22;34866;48.670;18.260;2023-02-26T04:33:31;0.60;2022.40
49052;DHT22;34866;48.670;18.260;2023-02-26T04:35:58;0.70;1766.40
49052;DHT22;34866;48.670;18.260;2023-02-26T04:38:24;0.60;1766.40
49052;DHT22;34866;48.670;18.260;2023-02-26T04:40:49;0.60;2022.40
49052;DHT22;34866;48.670;18.260;2023-02-26T04:43:16;0.50;2150.40
49052;DHT22;34866;48.670;18.260;2023-02-26T04:45:44;12.90;1894.40
49052;DHT22;34866;48.670;18.260;2023-02-26T04:48:11;0.60;1689.60
49052;DHT22;34866;48.670;18.260;2023-02-26T04:50:36;0.60;1459.20
49052;DHT22;34866;48.670;18.260;2023-02-26T04:53:02;0.60;1305.60
49052;DHT22;34866;48.670;18.260;2023-02-26T04:55:28;0.60;1305.60
49052;DHT22;34866;48.670;18.260;2023-02-26T04:57:53;0.50;1433.60
49052;DHT22;34866;48.670;18.260;2023-02-26T05:00:19;0.40;1484.80
49052;DHT22;34866;48.670;18.260;2023-02-26T05:02:45;0.40;1484.80
49052;DHT22;34866;48.670;18.260;2023-02-26T05:05:11;0.40;1561.60
49052;DHT22;34866;48.670;18.260;2023-02-26T05:07:36;0.30;1715.20
49052;DHT22;34866;48.670;18.260;2023-02-26T05:10:03;0.40;1382.40
49052;DHT22;34866;48.670;18.260;2023-02-26T05:12:29;0.40;1459.20
49052;DHT22;34866;48.670;18.260;2023-02-26T05:14:54;0.30;1510.40
49052;DHT22;34866;48.670;18.260;2023-02-26T05:17:20;0.20;1612.80
49052;DHT22;34866;48.670;18.260;2023-02-26T05:19:45;0.20;1536.00
49052;DHT22;34866;48.670;18.260;2023-02-26T05:22:11;0.20;1612.80
49052;DHT22;34866;48.670;18.260;2023-02-26T05:24:37;0.20;1587.20
49052;DHT22;34866;48.670;18.260;2023-02-26T05:27:02;0.20;1561.60
49052;DHT22;34866;48.670;18.260;2023-02-26T05:29:28;0.20;1305.60
49052;DHT22;34866;48.670;18.260;2023-02-26T05:31:53;0.30;1203.20
49052;DHT22;34866;48.670;18.260;2023-02-26T05:34:19;0.30;1254.40
49052;DHT22;34866;48.670;18.260;2023-02-26T05:36:45;0.20;1152.00
49052;DHT22;34866;48.670;18.260;2023-02-26T05:39:10;0.20;1126.40
49052;DHT22;34866;48.670;18.260;2023-02-26T05:41:36;0.20;1254.40
49052;DHT22;34866;48.670;18.260;2023-02-26T05:44:02;0.20;1356.80
49052;DHT22;34866;48.670;18.260;2023-02-26T05:46:27;0.10;1331.20
49052;DHT22;34866;48.670;18.260;2023-02-26T05:48:53;0.10;1587.20
49052;DHT22;34866;48.670;18.260;2023-02-26T05:51:18;0.10;1459.20
49052;DHT22;34866;48.670;18.260;2023-02-26T05:53:44;0.20;1510.40
49052;DHT22;34866;48.670;18.260;2023-02-26T05:56:10;0.10;1408.00
49052;DHT22;34866;48.670;18.260;2023-02-26T05:58:36;0.10;1280.00
49052;DHT22;34866;48.670;18.260;2023-02-26T06:01:02;0.00;1433.60
49052;DHT22;34866;48.670;18.260;2023-02-26T06:03:28;0.20;1510.40
49052;DHT22;34866;48.670;18.260;2023-02-26T06:05:53;0.20;1382.40
49052;DHT22;34866;48.670;18.260;2023-02-26T06:08:19;0.20;1382.40
49052;DHT22;34866;48.670;18.260;2023-02-26T06:10:45;0.40;1152.00
49052;DHT22;34866;48.670;18.260;2023-02-26T06:13:10;0.40;1100.80
49052;DHT22;34866;48.670;18.260;2023-02-26T06:15:36;0.50;870.40
49052;DHT22;34866;48.670;18.260;2023-02-26T06:18:01;0.50;588.80
49052;DHT22;34866;48.670;18.260;2023-02-26T06:20:27;0.60;537.60
49052;DHT22;34866;48.670;18.260;2023-02-26T06:22:53;0.60;486.40
49052;DHT22;34866;48.670;18.260;2023-02-26T06:25:18;0.70;512.00
49052;DHT22;34866;48.670;18.260;2023-02-26T06:27:44;0.80;512.00
49052;DHT22;34866;48.670;18.260;2023-02-26T06:30:10;0.80;332.80
49052;DHT22;34866;48.670;18.260;2023-02-26T06:32:36;0.80;384.00
49052;DHT22;34866;48.670;18.260;2023-02-26T06:35:02;0.70;358.40
49052;DHT22;34866;48.670;18.260;2023-02-26T06:37:27;0.80;179.20
49052;DHT22;34866;48.670;18.260;2023-02-26T06:39:53;0.80;128.00
49052;DHT22;34866;48.670;18.260;2023-02-26T06:42:19;0.80;204.80
49052;DHT22;34866;48.670;18.260;2023-02-26T06:44:44;0.90;204.80
49052;DHT22;34866;48.670;18.260;2023-02-26T06:47:17;0.90;179.20
49052;DHT22;34866;48.670;18.260;2023-02-26T06:49:49;25.60;256.00
49052;DHT22;34866;48.670;18.260;2023-02-26T06:52:15;0.90;256.00
49052;DHT22;34866;48.670;18.260;2023-02-26T06:54:40;25.60;256.00
49052;DHT22;34866;48.670;18.260;2023-02-26T06:57:06;25.70;281.60
49052;DHT22;34866;48.670;18.260;2023-02-26T06:59:31;0.90;204.80
49052;DHT22;34866;48.670;18.260;2023-02-26T07:01:57;0.90;486.40
49052;DHT22;34866;48.670;18.260;2023-02-26T07:04:23;0.90;435.20
49052;DHT22;34866;48.670;18.260;2023-02-26T07:06:49;0.90;358.40
49052;DHT22;34866;48.670;18.260;2023-02-26T07:09:15;0.90;460.80
49052;DHT22;34866;48.670;18.260;2023-02-26T07:11:40;25.60;409.60
49052;DHT22;34866;48.670;18.260;2023-02-26T07:14:06;25.70;179.20
49052;DHT22;34866;48.670;18.260;2023-02-26T07:16:31;25.90;6451.20
49052;DHT22;34866;48.670;18.260;2023-02-26T07:18:57;26.10;6451.20
49052;DHT22;34866;48.670;18.260;2023-02-26T07:21:23;26.10;6451.20
49052;DHT22;34866;48.670;18.260;2023-02-26T07:23:48;26.30;6451.20
49052;DHT22;34866;48.670;18.260;2023-02-26T07:26:14;26.20;6451.20
49052;DHT22;34866;48.670;18.260;2023-02-26T07:28:42;26.50;6451.20
49052;DHT22;34866;48.670;18.260;2023-02-26T07:31:07;26.50;6451.20
49052;DHT22;34866;48.670;18.260;2023-02-26T07:33:33;26.50;6451.20
49052;DHT22;34866;48.670;18.260;2023-02-26T07:35:59;26.50;6451.20
49052;DHT22;34866;48.670;18.260;2023-02-26T07:38:25;26.50;6451.20
49052;DHT22;34866;48.670;18.260;2023-02-26T07:40:54;51.20;6476.80
49052;DHT22;34866;48.670;18.260;2023-02-26T07:43:20;51.30;6476.80
49052;DHT22;34866;48.670;18.260;2023-02-26T07:45:49;51.30;6476.80
49052;DHT22;34866;48.670;18.260;2023-02-26T07:48:15;51.40;6476.80
49052;DHT22;34866;48.670;18.260;2023-02-26T07:50:40;52.00;6476.80
49052;DHT22;34866;48.670;18.260;2023-02-26T07:53:06;52.00;6476.80
49052;DHT22;34866;48.670;18.260;2023-02-26T07:55:32;77.30;6476.80
49052;DHT22;34866;48.670;18.260;2023-02-26T07:57:57;77.60;6476.80
49052;DHT22;34866;48.670;18.260;2023-02-26T08:00:23;102.70;6476.80
49052;DHT22;34866;48.670;18.260;2023-02-26T08:02:48;77.60;6476.80
49052;DHT22;34866;48.670;18.260;2023-02-26T08:05:14;77.20;6476.80
49052;DHT22;34866;48.670;18.260;2023-02-26T08:07:40;102.50;6476.80
49052;DHT22;34866;48.670;18.260;2023-02-26T08:10:06;103.30;6476.80
49052;DHT22;34866;48.670;18.260;2023-02-26T08:12:32;77.70;6476.80
49052;DHT22;34866;48.670;18.260;2023-02-26T08:14:57;77.70;6476.80
49052;DHT22;34866;48.670;18.260;2023-02-26T08:17:23;128.80;204.80
49052;DHT22;34866;48.670;18.260;2023-02-26T08:19:49;128.30;6502.40
49052;DHT22;34866;48.670;18.260;2023-02-26T08:22:14;103.30;6476.80
49052;DHT22;34866;48.670;18.260;2023-02-26T08:24:40;103.10;6476.80
49052;DHT22;34866;48.670;18.260;2023-02-26T08:27:06;102.80;6476.80
49052;DHT22;34866;48.670;18.260;2023-02-26T08:29:32;102.60;6476.80
49052;DHT22;34866;48.670;18.260;2023-02-26T08:31:57;77.70;6476.80
49052;DHT22;34866;48.670;18.260;2023-02-26T08:34:23;77.60;6476.80
49052;DHT22;34866;48.670;18.260;2023-02-26T08:36:49;77.60;6476.80
49052;DHT22;34866;48.670;18.260;2023-02-26T08:39:15;77.70;6476.80
49052;DHT22;34866;48.670;18.260;2023-02-26T08:41:40;102.40;6476.80
49052;DHT22;34866;48.670;18.260;2023-02-26T08:44:06;102.60;6476.80
49052;DHT22;34866;48.670;18.260;2023-02-26T08:46:33;102.60;6476.80
49052;DHT22;34866;48.670;18.260;2023-02-26T08:48:59;102.40;6476.80
49052;DHT22;34866;48.670;18.260;2023-02-26T08:51:25;102.80;6476.80
49052;DHT22;34866;48.670;18.260;2023-02-26T08:53:50;77.70;6476.80
49052;DHT22;34866;48.670;18.260;2023-02-26T08:56:16;102.40;6476.80
49052;DHT22;34866;48.670;18.260;2023-02-26T08:58:42;102.60;6476.80
49052;DHT22;34866;48.670;18.260;2023-02-26T09:01:08;102.90;6476.80
49052;DHT22;34866;48.670;18.260;2023-02-26T09:03:34;103.30;6476.80
49052;DHT22;34866;48.670;18.260;2023-02-26T09:06:00;128.50;6502.40
49052;DHT22;34866;48.670;18.260;2023-02-26T09:08:26;128.90;6502.40
49052;DHT22;34866;48.670;18.260;2023-02-26T09:10:52;128.60;6502.40
49052;DHT22;34866;48.670;18.260;2023-02-26T09:13:17;154.20;6502.40
49052;DHT22;34866;48.670;18.260;2023-02-26T09:15:43;128.90;6502.40
49052;DHT22;34866;48.670;18.260;2023-02-26T09:18:09;128.90;6502.40
49052;DHT22;34866;48.670;18.260;2023-02-26T09:20:41;154.00;6502.40
49052;DHT22;34866;48.670;18.260;2023-02-26T09:23:08;153.60;6502.40
49052;DHT22;34866;48.670;18.260;2023-02-26T09:25:33;154.20;6502.40
49052;DHT22;34866;48.670;18.260;2023-02-26T09:27:59;154.10;6502.40
49052;DHT22;34866;48.670;18.260;2023-02-26T09:30:25;179.80;6502.40
49052;DHT22;34866;48.670;18.260;2023-02-26T09:32:50;256.00;6502.40
49052;DHT22;34866;48.670;18.260;2023-02-26T09:35:16;231.30;6502.40
49052;DHT22;34866;48.670;18.260;2023-02-26T09:37:41;281.60;6528.00
49052;DHT22;34866;48.670;18.260;2023-02-26T09:45:35;205.50;6502.40
49052;DHT22;34866;48.670;18.260;2023-02-26T09:48:05;179.70;6502.40
49052;DHT22;34866;48.670;18.260;2023-02-26T09:50:40;179.20;6502.40
49052;DHT22;34866;48.670;18.260;2023-02-26T09:53:27;231.20;6502.40
49052;DHT22;34866;48.670;18.260;2023-02-26T09:56:05;308.10;128.00
49052;DHT22;34866;48.670;18.260;2023-02-26T09:58:38;282.30;6528.00
49052;DHT22;34866;48.670;18.260;2023-02-26T10:09:34;308.00;128.00
49052;DHT22;34866;48.670;18.260;2023-02-26T10:12:09;359.10;128.00
49052;DHT22;34866;48.670;18.260;2023-02-26T10:14:39;332.80;128.00
49052;DHT22;34866;48.670;18.260;2023-02-26T10:17:30;333.20;128.00
49052;DHT22;34866;48.670;18.260;2023-02-26T10:20:03;333.20;128.00
49052;DHT22;34866;48.670;18.260;2023-02-26T10:22:49;384.00;128.00
49052;DHT22;34866;48.670;18.260;2023-02-26T10:25:33;282.20;6528.00
49052;DHT22;34866;48.670;18.260;2023-02-26T10:28:29;435.90;128.00
49052;DHT22;34866;48.670;18.260;2023-02-26T10:31:01;333.40;128.00
49052;DHT22;34866;48.670;18.260;2023-02-26T10:33:40;358.50;128.00
49052;DHT22;34866;48.670;18.260;2023-02-26T10:36:29;256.40;6502.40
49052;DHT22;34866;48.670;18.260;2023-02-26T10:39:40;282.20;6528.00
49052;DHT22;34866;48.670;18.260;2023-02-26T10:42:00;231.20;6502.40
49052;DHT22;34866;48.670;18.260;2023-02-26T10:44:34;307.30;128.00
49052;DHT22;34866;48.670;18.260;2023-02-26T10:52:18;435.40;128.00
49052;DHT22;34866;48.670;18.260;2023-02-26T10:57:34;384.10;614.40
49052;DHT22;34866;48.670;18.260;2023-02-26T11:00:03;410.40;614.40
49052;DHT22;34866;48.670;18.260;2023-02-26T11:02:44;384.00;614.40
49052;DHT22;34866;48.670;18.260;2023-02-26T11:05:26;307.40;128.00
49052;DHT22;34866;48.670;18.260;2023-02-26T11:08:04;384.50;614.40
49052;DHT22;34866;48.670;18.260;2023-02-26T11:11:03;333.60;128.00
49052;DHT22;34866;48.670;18.260;2023-02-26T11:13:34;281.70;6528.00
49052;DHT22;34866;48.670;18.260;2023-02-26T11:16:12;282.10;6528.00
49052;DHT22;34866;48.670;18.260;2023-02-26T11:18:43;358.40;614.40
49052;DHT22;34866;48.670;18.260;2023-02-26T11:21:17;358.40;128.00
49052;DHT22;34866;48.670;18.260;2023-02-26T11:23:45;384.90;588.80
49052;DHT22;34866;48.670;18.260;2023-02-26T11:26:18;282.20;6528.00
49052;DHT22;34866;48.670;18.260;2023-02-26T11:28:53;307.90;614.40
49052;DHT22;34866;48.670;18.260;2023-02-26T11:31:22;384.70;128.00
49052;DHT22;34866;48.670;18.260;2023-02-26T11:34:06;333.00;128.00
49052;DHT22;34866;48.670;18.260;2023-02-26T11:36:33;281.90;6528.00
49052;DHT22;34866;48.670;18.260;2023-02-26T11:39:14;179.80;6502.40
49052;DHT22;34866;48.670;18.260;2023-02-26T11:41:41;205.00;6502.40
49052;DHT22;34866;48.670;18.260;2023-02-26T11:44:20;205.10;6502.40
49052;DHT22;34866;48.670;18.260;2023-02-26T11:46:55;154.10;6502.40
49052;DHT22;34866;48.670;18.260;2023-02-26T11:49:26;154.00;6502.40
49052;DHT22;34866;48.670;18.260;2023-02-26T11:54:29;205.50;6502.40
49052;DHT22;34866;48.670;18.260;2023-02-26T11:57:04;230.90;6502.40
49052;DHT22;34866;48.670;18.260;2023-02-26T11:59:31;256.00;6502.40
49052;DHT22;34866;48.670;18.260;2023-02-26T12:02:11;333.20;588.80
49052;DHT22;34866;48.670;18.260;2023-02-26T12:04:39;358.50;640.00
49052;DHT22;34866;48.670;18.260;2023-02-26T12:07:13;384.90;128.00
49052;DHT22;34866;48.670;18.260;2023-02-26T12:09:39;333.50;128.00
49052;DHT22;34866;48.670;18.260;2023-02-26T12:12:20;333.00;128.00
49052;DHT22;34866;48.670;18.260;2023-02-26T12:18:31;384.80;563.20
49052;DHT22;34866;48.670;18.260;2023-02-26T12:34:53;308.10;128.00
49052;DHT22;34866;48.670;18.260;2023-02-26T12:45:44;256.30;6502.40
49052;DHT22;34866;48.670;18.260;2023-02-26T12:51:08;230.60;6502.40
49052;DHT22;34866;48.670;18.260;2023-02-26T13:02:17;154.20;6502.40
49052;DHT22;34866;48.670;18.260;2023-02-26T13:08:24;154.30;6502.40
49052;DHT22;34866;48.670;18.260;2023-02-26T13:21:32;153.70;6502.40
49052;DHT22;34866;48.670;18.260;2023-02-26T13:26:32;153.60;6502.40
49052;DHT22;34866;48.670;18.260;2023-02-26T13:33:55;128.70;6502.40
49052;DHT22;34866;48.670;18.260;2023-02-26T13:36:24;128.50;6502.40
49052;DHT22;34866;48.670;18.260;2023-02-26T13:55:54;102.90;6476.80
49052;DHT22;34866;48.670;18.260;2023-02-26T14:03:50;102.40;6476.80
49052;DHT22;34866;48.670;18.260;2023-02-26T14:08:56;102.40;6476.80
49052;DHT22;34866;48.670;18.260;2023-02-26T14:14:16;77.50;6476.80
49052;DHT22;34866;48.670;18.260;2023-02-26T14:16:43;77.70;6476.80
49052;DHT22;34866;48.670;18.260;2023-02-26T14:21:47;77.70;6476.80
49052;DHT22;34866;48.670;18.260;2023-02-26T14:24:29;77.50;6476.80
49052;DHT22;34866;48.670;18.260;2023-02-26T14:32:31;77.30;6476.80
49052;DHT22;34866;48.670;18.260;2023-02-26T14:35:07;77.30;6476.80
49052;DHT22;34866;48.670;18.260;2023-02-26T14:37:35;77.40;6476.80
49052;DHT22;34866;48.670;18.260;2023-02-26T14:40:10;77.40;6476.80
49052;DHT22;34866;48.670;18.260;2023-02-26T14:42:48;77.50;6476.80
49052;DHT22;34866;48.670;18.260;2023-02-26T14:47:45;77.40;6476.80
49052;DHT22;34866;48.670;18.260;2023-02-26T14:50:15;77.50;6476.80
49052;DHT22;34866;48.670;18.260;2023-02-26T14:52:51;77.40;6476.80
49052;DHT22;34866;48.670;18.260;2023-02-26T15:15:12;77.10;6476.80
49052;DHT22;34866;48.670;18.260;2023-02-26T15:23:42;77.20;6476.80
49052;DHT22;34866;48.670;18.260;2023-02-26T15:26:27;77.10;6476.80
49052;DHT22;34866;48.670;18.260;2023-02-26T15:28:54;77.10;6476.80
49052;DHT22;34866;48.670;18.260;2023-02-26T15:31:31;77.10;6476.80
49052;DHT22;34866;48.670;18.260;2023-02-26T15:33:59;77.00;6476.80
49052;DHT22;34866;48.670;18.260;2023-02-26T15:36:29;77.10;6476.80
49052;DHT22;34866;48.670;18.260;2023-02-26T15:39:01;76.90;6476.80
49052;DHT22;34866;48.670;18.260;2023-02-26T15:41:31;76.80;6476.80
49052;DHT22;34866;48.670;18.260;2023-02-26T15:44:06;76.80;6476.80
49052;DHT22;34866;48.670;18.260;2023-02-26T15:46:39;52.10;6476.80
49052;DHT22;34866;48.670;18.260;2023-02-26T15:49:17;52.00;6476.80
49052;DHT22;34866;48.670;18.260;2023-02-26T15:51:45;51.80;6476.80
49052;DHT22;34866;48.670;18.260;2023-02-26T15:54:21;51.90;6476.80
49052;DHT22;34866;48.670;18.260;2023-02-26T15:56:47;51.70;6476.80
49052;DHT22;34866;48.670;18.260;2023-02-26T15:59:28;77.00;6476.80
49052;DHT22;34866;48.670;18.260;2023-02-26T16:01:54;51.60;6476.80
49052;DHT22;34866;48.670;18.260;2023-02-26T16:04:21;51.50;6476.80
49052;DHT22;34866;48.670;18.260;2023-02-26T16:06:55;51.50;6476.80
49052;DHT22;34866;48.670;18.260;2023-02-26T16:09:32;51.40;6476.80
49052;DHT22;34866;48.670;18.260;2023-02-26T16:12:03;51.30;6476.80
49052;DHT22;34866;48.670;18.260;2023-02-26T16:14:34;51.20;6476.80
49052;DHT22;34866;48.670;18.260;2023-02-26T16:17:00;26.50;6451.20
49052;DHT22;34866;48.670;18.260;2023-02-26T16:21:54;26.50;6451.20
49052;DHT22;34866;48.670;18.260;2023-02-26T16:24:21;51.30;6476.80
49052;DHT22;34866;48.670;18.260;2023-02-26T16:27:01;51.20;6528.00
49052;DHT22;34866;48.670;18.260;2023-02-26T16:29:30;51.30;6476.80
49052;DHT22;34866;48.670;18.260;2023-02-26T16:31:59;51.30;6476.80
49052;DHT22;34866;48.670;18.260;2023-02-26T16:34:35;51.30;6476.80
49052;DHT22;34866;48.670;18.260;2023-02-26T16:39:53;51.20;6476.80
49052;DHT22;34866;48.670;18.260;2023-02-26T16:42:22;26.50;6451.20
49052;DHT22;34866;48.670;18.260;2023-02-26T16:47:29;26.50;6451.20
49052;DHT22;34866;48.670;18.260;2023-02-26T16:49:55;26.40;6451.20
49052;DHT22;34866;48.670;18.260;2023-02-26T16:52:23;26.50;6451.20
49052;DHT22;34866;48.670;18.260;2023-02-26T16:55:01;26.50;6451.20
49052;DHT22;34866;48.670;18.260;2023-02-26T16:57:36;26.50;6451.20
49052;DHT22;34866;48.670;18.260;2023-02-26T17:00:11;26.40;6451.20
49052;DHT22;34866;48.670;18.260;2023-02-26T17:02:45;26.40;6451.20
49052;DHT22;34866;48.670;18.260;2023-02-26T17:05:24;26.40;6451.20
49052;DHT22;34866;48.670;18.260;2023-02-26T17:08:05;26.40;6451.20
49052;DHT22;34866;48.670;18.260;2023-02-26T17:10:38;26.20;6451.20
49052;DHT22;34866;48.670;18.260;2023-02-26T17:13:19;26.20;6451.20
49052;DHT22;34866;48.670;18.260;2023-02-26T17:15:59;26.30;6451.20
49052;DHT22;34866;48.670;18.260;2023-02-26T17:18:25;26.20;6451.20
49052;DHT22;34866;48.670;18.260;2023-02-26T17:20:51;26.20;6451.20
49052;DHT22;34866;48.670;18.260;2023-02-26T17:23:18;26.10;6451.20
49052;DHT22;34866;48.670;18.260;2023-02-26T17:25:48;26.00;6451.20
49052;DHT22;34866;48.670;18.260;2023-02-26T17:28:26;26.00;6451.20
49052;DHT22;34866;48.670;18.260;2023-02-26T17:31:02;26.00;6451.20
49052;DHT22;34866;48.670;18.260;2023-02-26T17:33:28;25.90;6451.20
49052;DHT22;34866;48.670;18.260;2023-02-26T17:36:02;25.70;6451.20
49052;DHT22;34866;48.670;18.260;2023-02-26T17:38:28;25.80;6451.20
49052;DHT22;34866;48.670;18.260;2023-02-26T17:40:55;25.80;6451.20
49052;DHT22;34866;48.670;18.260;2023-02-26T17:43:22;25.80;6451.20
49052;DHT22;34866;48.670;18.260;2023-02-26T17:45:50;25.60;6451.20
49052;DHT22;34866;48.670;18.260;2023-02-26T17:48:16;0.90;6451.20
49052;DHT22;34866;48.670;18.260;2023-02-26T17:53:17;0.70;128.00
49052;DHT22;34866;48.670;18.260;2023-02-26T17:55:48;0.70;281.60
49052;DHT22;34866;48.670;18.260;2023-02-26T17:58:25;0.70;6451.20
49052;DHT22;34866;48.670;18.260;2023-02-26T18:00:52;0.70;6451.20
49052;DHT22;34866;48.670;18.260;2023-02-26T18:03:18;0.70;128.00
49052;DHT22;34866;48.670;18.260;2023-02-26T18:05:45;0.60;128.00
49052;DHT22;34866;48.670;18.260;2023-02-26T18:08:22;0.50;179.20
49052;DHT22;34866;48.670;18.260;2023-02-26T18:10:54;0.40;512.00
49052;DHT22;34866;48.670;18.260;2023-02-26T18:13:20;0.60;6451.20
49052;DHT22;34866;48.670;18.260;2023-02-26T18:15:46;0.60;128.00
49052;DHT22;34866;48.670;18.260;2023-02-26T18:18:13;0.80;6451.20
49052;DHT22;34866;48.670;18.260;2023-02-26T18:20:40;0.60;6451.20
49052;DHT22;34866;48.670;18.260;2023-02-26T18:23:06;0.50;6476.80
49052;DHT22;34866;48.670;18.260;2023-02-26T18:25:33;0.50;307.20
49052;DHT22;34866;48.670;18.260;2023-02-26T18:28:01;0.60;153.60
49052;DHT22;34866;48.670;18.260;2023-02-26T18:30:30;0.30;435.20
49052;DHT22;34866;48.670;18.260;2023-02-26T18:32:56;0.10;6451.20
49052;DHT22;34866;48.670;18.260;2023-02-26T18:35:23;0.40;307.20